createdAt,value
2023-05-24T00:02:03.823Z,37.30
2023-05-24T00:04:41.748Z,37.50
2023-05-24T00:07:18.132Z,37.50
2023-05-24T00:09:54.101Z,37.50
2023-05-24T00:12:30.193Z,37.50
2023-05-24T00:15:07.109Z,37.40
2023-05-24T00:17:43.201Z,37.40
2023-05-24T00:20:20.907Z,37.40
2023-05-24T00:22:57.229Z,37.40
2023-05-24T00:25:33.158Z,37.40
2023-05-24T00:28:09.476Z,37.30
2023-05-24T00:30:45.609Z,37.30
2023-05-24T00:33:23.374Z,37.20
2023-05-24T00:35:59.331Z,37.20
2023-05-24T00:38:35.340Z,37.20
2023-05-24T00:41:11.611Z,37.10
2023-05-24T00:43:47.584Z,37.20
2023-05-24T00:46:32.913Z,37.10
2023-05-24T00:49:09.872Z,36.90
2023-05-24T00:51:46.373Z,36.90
2023-05-24T00:54:22.485Z,36.80
2023-05-24T00:57:00.702Z,36.60
2023-05-24T00:59:38.006Z,36.60
2023-05-24T01:02:13.969Z,36.50
2023-05-24T01:04:49.991Z,36.40
2023-05-24T01:07:46.187Z,36.10
2023-05-24T01:10:41.110Z,35.70
2023-05-24T01:13:39.006Z,35.20
2023-05-24T01:16:23.064Z,35.00
2023-05-24T01:19:13.049Z,34.90
2023-05-24T01:22:28.790Z,34.70
2023-05-24T01:25:27.893Z,34.80
2023-05-24T01:28:04.328Z,34.90
2023-05-24T01:30:41.988Z,34.80
2023-05-24T01:33:18.168Z,34.90
2023-05-24T01:35:54.122Z,34.90
2023-05-24T01:38:30.162Z,34.90
2023-05-24T01:41:22.913Z,34.80
2023-05-24T01:44:31.941Z,34.70
2023-05-24T01:47:32.043Z,34.70
2023-05-24T01:50:20.695Z,34.60
2023-05-24T01:53:03.847Z,34.50
2023-05-24T01:55:40.740Z,34.50
2023-05-24T01:58:18.729Z,34.50
2023-05-24T02:00:55.460Z,34.30
2023-05-24T02:03:32.200Z,34.40
2023-05-24T02:06:08.382Z,34.30
2023-05-24T02:08:44.306Z,34.30
2023-05-24T02:11:20.784Z,34.40
2023-05-24T02:13:56.663Z,34.40
2023-05-24T02:16:33.332Z,34.50
2023-05-24T02:19:09.691Z,34.50
2023-05-24T02:21:45.678Z,34.40
2023-05-24T02:24:21.650Z,34.50
2023-05-24T02:26:57.565Z,34.50
2023-05-24T02:29:33.471Z,34.50
2023-05-24T02:32:09.511Z,34.50
2023-05-24T02:34:45.433Z,34.60
2023-05-24T02:37:21.341Z,34.50
2023-05-24T02:39:57.282Z,34.90
2023-05-24T02:42:33.243Z,34.60
2023-05-24T02:45:09.686Z,34.50
2023-05-24T02:47:46.710Z,34.50
2023-05-24T02:50:22.728Z,34.50
2023-05-24T02:52:58.716Z,34.60
2023-05-24T02:55:34.748Z,34.50
2023-05-24T02:58:12.157Z,34.60
2023-05-24T03:00:48.135Z,34.60
2023-05-24T03:03:24.487Z,34.60
2023-05-24T03:06:00.641Z,34.70
2023-05-24T03:08:37.414Z,34.70
2023-05-24T03:11:14.247Z,34.80
2023-05-24T03:13:50.939Z,34.80
2023-05-24T03:16:27.287Z,34.80
2023-05-24T03:19:04.953Z,34.90
2023-05-24T03:21:41.684Z,34.90
2023-05-24T03:24:17.593Z,34.90
2023-05-24T03:26:53.707Z,34.90
2023-05-24T03:29:29.836Z,35.00
2023-05-24T03:32:06.190Z,35.40
2023-05-24T03:34:42.525Z,35.20
2023-05-24T03:37:18.913Z,35.20
2023-05-24T03:39:55.654Z,35.20
2023-05-24T03:42:50.321Z,35.30
2023-05-24T03:45:37.796Z,35.40
2023-05-24T03:48:15.767Z,35.50
2023-05-24T03:50:51.983Z,35.50
2023-05-24T03:53:27.878Z,35.40
2023-05-24T03:56:04.137Z,35.60
2023-05-24T03:58:40.953Z,35.60
2023-05-24T04:01:32.176Z,35.60
2023-05-24T04:04:09.528Z,35.70
2023-05-24T04:06:45.648Z,35.70
2023-05-24T04:09:23.774Z,35.70
2023-05-24T04:11:59.821Z,36.10
2023-05-24T04:14:35.820Z,35.80
2023-05-24T04:17:12.329Z,35.70
2023-05-24T04:19:48.479Z,35.80
2023-05-24T04:22:25.800Z,35.80
2023-05-24T04:25:03.630Z,35.70
2023-05-24T04:27:40.837Z,35.80
2023-05-24T04:30:17.788Z,35.70
2023-05-24T04:32:53.849Z,35.80
2023-05-24T04:35:30.783Z,36.00
2023-05-24T04:38:07.368Z,36.10
2023-05-24T04:40:43.749Z,36.00
2023-05-24T04:43:19.889Z,36.00
2023-05-24T04:45:56.056Z,36.00
2023-05-24T04:48:31.972Z,36.00
2023-05-24T04:51:07.928Z,36.00
2023-05-24T04:53:44.079Z,36.00
2023-05-24T04:56:20.212Z,36.00
2023-05-24T04:58:56.220Z,35.90
2023-05-24T05:01:32.542Z,35.90
2023-05-24T05:04:08.799Z,35.90
2023-05-24T05:06:44.905Z,35.90
2023-05-24T05:09:21.218Z,35.90
2023-05-24T05:11:57.237Z,35.90
2023-05-24T05:14:33.341Z,35.90
2023-05-24T05:17:09.322Z,35.80
2023-05-24T05:19:45.493Z,35.60
2023-05-24T05:22:21.508Z,35.60
2023-05-24T05:24:57.526Z,35.50
2023-05-24T05:27:33.516Z,35.30
2023-05-24T05:30:10.207Z,35.40
2023-05-24T05:32:46.546Z,35.40
2023-05-24T05:35:22.683Z,35.30
2023-05-24T05:37:58.800Z,35.40
2023-05-24T05:40:34.833Z,35.10
2023-05-24T05:43:10.893Z,35.10
2023-05-24T05:45:47.095Z,35.10
2023-05-24T05:48:23.109Z,35.10
2023-05-24T05:50:59.013Z,35.00
2023-05-24T05:53:35.160Z,35.00
2023-05-24T05:56:11.239Z,34.90
2023-05-24T05:58:47.310Z,34.80
2023-05-24T06:01:23.300Z,34.80
2023-05-24T06:03:59.463Z,34.60
2023-05-24T06:06:35.501Z,34.70
2023-05-24T06:09:11.994Z,34.60
2023-05-24T06:11:48.123Z,34.20
2023-05-24T06:14:24.997Z,34.30
2023-05-24T06:17:02.074Z,34.00
2023-05-24T06:19:38.501Z,33.70
2023-05-24T06:22:14.478Z,33.80
2023-05-24T06:24:50.500Z,33.90
2023-05-24T06:27:26.521Z,33.90
2023-05-24T06:30:02.591Z,33.70
2023-05-24T06:32:38.944Z,33.70
2023-05-24T06:35:15.040Z,33.60
2023-05-24T06:37:51.346Z,33.40
2023-05-24T06:40:27.425Z,33.30
2023-05-24T06:43:03.977Z,33.40
2023-05-24T06:45:41.587Z,33.50
2023-05-24T06:48:17.654Z,33.50
2023-05-24T06:50:53.742Z,33.50
2023-05-24T06:53:30.595Z,33.40
2023-05-24T06:56:09.303Z,33.30
2023-05-24T06:58:45.251Z,33.30
2023-05-24T07:01:22.315Z,33.30
2023-05-24T07:03:59.100Z,33.40
2023-05-24T07:06:35.566Z,33.40
2023-05-24T07:09:11.690Z,33.20
2023-05-24T07:11:47.781Z,33.20
2023-05-24T07:14:26.145Z,33.20
2023-05-24T07:17:02.287Z,33.20
2023-05-24T07:19:38.442Z,33.30
2023-05-24T07:22:14.613Z,33.30
2023-05-24T07:24:50.818Z,33.30
2023-05-24T07:27:26.868Z,33.20
2023-05-24T07:30:05.676Z,33.20
2023-05-24T07:32:44.096Z,33.20
2023-05-24T07:35:20.242Z,33.30
2023-05-24T07:37:56.492Z,33.10
2023-05-24T07:40:32.449Z,32.60
2023-05-24T07:43:08.448Z,32.40
2023-05-24T07:45:44.481Z,32.30
2023-05-24T07:48:21.557Z,32.20
2023-05-24T07:50:57.539Z,32.40
2023-05-24T07:53:34.692Z,32.70
2023-05-24T07:56:11.236Z,32.80
2023-05-24T07:58:49.121Z,32.60
2023-05-24T08:01:25.389Z,32.50
2023-05-24T08:04:04.180Z,32.50
2023-05-24T08:06:40.385Z,32.50
2023-05-24T08:09:16.698Z,32.30
2023-05-24T08:11:52.754Z,32.40
2023-05-24T08:14:28.848Z,32.20
2023-05-24T08:17:04.927Z,32.20
2023-05-24T08:19:41.116Z,32.20
2023-05-24T08:22:17.106Z,32.20
2023-05-24T08:24:53.146Z,32.30
2023-05-24T08:27:30.542Z,32.20
2023-05-24T08:30:09.469Z,32.30
2023-05-24T08:32:46.141Z,32.60
2023-05-24T08:35:22.395Z,32.50
2023-05-24T08:37:58.474Z,32.20
2023-05-24T08:40:34.623Z,32.00
2023-05-24T08:43:12.178Z,31.90
2023-05-24T08:45:49.988Z,31.60
2023-05-24T08:48:27.101Z,31.60
2023-05-24T08:51:03.973Z,31.50
2023-05-24T08:53:41.944Z,31.20
2023-05-24T08:56:19.064Z,31.20
2023-05-24T08:58:56.225Z,31.10
2023-05-24T09:01:34.661Z,31.30
2023-05-24T09:04:12.421Z,31.40
2023-05-24T09:06:49.137Z,31.30
2023-05-24T09:09:28.979Z,31.30
2023-05-24T09:12:06.564Z,31.20
2023-05-24T09:14:47.232Z,30.90
2023-05-24T09:17:23.759Z,30.90
2023-05-24T09:20:00.027Z,31.10
2023-05-24T09:22:42.052Z,31.30
2023-05-24T09:25:20.431Z,31.30
2023-05-24T09:27:56.440Z,31.00
2023-05-24T09:30:32.572Z,31.20
2023-05-24T09:33:08.707Z,31.10
2023-05-24T09:35:44.827Z,31.50
2023-05-24T09:38:20.775Z,31.20
2023-05-24T09:41:08.340Z,31.10
2023-05-24T09:43:50.022Z,30.70
2023-05-24T09:46:27.214Z,30.80
2023-05-24T09:49:09.575Z,30.90
2023-05-24T09:51:46.481Z,31.00
2023-05-24T09:54:22.790Z,31.20
2023-05-24T09:57:05.189Z,31.20
2023-05-24T09:59:42.885Z,30.90
2023-05-24T10:02:22.987Z,30.80
2023-05-24T10:05:03.661Z,30.90
2023-05-24T10:07:42.311Z,31.00
2023-05-24T10:10:18.613Z,31.00
2023-05-24T10:12:56.610Z,31.10
2023-05-24T10:15:32.625Z,30.80
2023-05-24T10:18:12.161Z,30.70
2023-05-24T10:20:52.366Z,30.60
2023-05-24T10:23:32.622Z,30.70
2023-05-24T10:26:11.831Z,30.70
2023-05-24T10:28:56.464Z,30.60
2023-05-24T10:31:40.507Z,30.70
2023-05-24T10:34:17.103Z,30.80
2023-05-24T10:36:53.384Z,30.60
2023-05-24T10:39:29.442Z,30.20
2023-05-24T10:42:09.364Z,30.40
2023-05-24T10:44:46.160Z,30.30
2023-05-24T10:47:22.127Z,30.20
2023-05-24T10:49:59.935Z,30.10
2023-05-24T10:52:37.047Z,30.00
2023-05-24T10:55:13.234Z,30.00
2023-05-24T10:57:49.265Z,29.80
2023-05-24T11:00:34.564Z,29.90
2023-05-24T11:03:13.409Z,29.80
2023-05-24T11:05:54.874Z,29.60
2023-05-24T11:08:35.510Z,29.20
2023-05-24T11:13:57.842Z,29.50
2023-05-24T11:16:37.457Z,29.00
2023-05-24T11:19:23.063Z,28.80
2023-05-24T11:22:00.080Z,28.50
2023-05-24T11:24:36.943Z,28.50
2023-05-24T11:27:14.326Z,28.20
2023-05-24T11:29:50.329Z,28.00
2023-05-24T11:32:27.125Z,28.00
2023-05-24T11:35:08.822Z,27.50
2023-05-24T11:37:46.780Z,27.70
2023-05-24T11:40:24.033Z,27.80
2023-05-24T11:43:00.738Z,26.90
2023-05-24T11:45:37.126Z,26.90
2023-05-24T11:48:13.496Z,27.10
2023-05-24T11:50:50.418Z,26.90
2023-05-24T11:53:26.565Z,27.30
2023-05-24T11:56:05.116Z,27.40
2023-05-24T11:58:50.085Z,27.70
2023-05-24T12:01:29.110Z,27.90
2023-05-24T12:04:07.521Z,27.70
2023-05-24T12:06:44.764Z,27.60
2023-05-24T12:09:20.925Z,28.00
2023-05-24T12:11:58.331Z,27.30
2023-05-24T12:14:36.262Z,27.30
2023-05-24T12:17:18.432Z,27.20
2023-05-24T12:19:54.573Z,26.80
2023-05-24T12:22:31.825Z,26.10
2023-05-24T12:25:09.475Z,26.00
2023-05-24T12:27:48.045Z,26.00
2023-05-24T12:30:25.888Z,26.50
2023-05-24T12:33:01.810Z,26.60
2023-05-24T12:35:42.672Z,26.60
2023-05-24T12:38:25.397Z,25.50
2023-05-24T12:41:11.348Z,26.20
2023-05-24T12:43:52.449Z,26.40
2023-05-24T12:46:28.400Z,26.10
2023-05-24T12:49:05.130Z,26.30
2023-05-24T12:51:41.141Z,26.30
2023-05-24T12:54:24.025Z,26.20
2023-05-24T12:57:02.452Z,25.80
2023-05-24T12:59:38.498Z,25.60
2023-05-24T13:02:14.501Z,25.30
2023-05-24T13:04:51.350Z,25.40
2023-05-24T13:07:27.441Z,25.60
2023-05-24T13:10:04.161Z,25.90
2023-05-24T13:12:41.796Z,25.40
2023-05-24T13:15:19.567Z,25.70
2023-05-24T13:17:56.221Z,24.20
2023-05-24T13:20:32.480Z,24.30
2023-05-24T13:23:08.411Z,25.30
2023-05-24T13:25:44.330Z,24.60
2023-05-24T13:28:20.587Z,24.60
2023-05-24T13:30:56.584Z,24.20
2023-05-24T13:33:33.870Z,23.70
2023-05-24T13:36:09.853Z,24.00
2023-05-24T13:38:46.117Z,23.90
2023-05-24T13:41:22.198Z,23.90
2023-05-24T13:43:58.092Z,23.70
2023-05-24T13:46:34.103Z,22.90
2023-05-24T13:49:11.205Z,23.40
2023-05-24T13:51:47.152Z,23.30
2023-05-24T13:54:23.074Z,23.60
2023-05-24T13:56:59.564Z,23.20
2023-05-24T13:59:35.535Z,23.50
2023-05-24T14:02:11.982Z,23.30
2023-05-24T14:04:48.007Z,23.10
2023-05-24T14:07:23.986Z,22.40
2023-05-24T14:09:59.984Z,23.00
2023-05-24T14:12:36.250Z,22.80
2023-05-24T14:15:12.405Z,23.00
2023-05-24T14:17:48.392Z,23.40
2023-05-24T14:20:24.455Z,23.00
2023-05-24T14:23:00.382Z,23.00
2023-05-24T14:25:36.450Z,22.70
2023-05-24T14:28:12.811Z,22.60
2023-05-24T14:30:48.702Z,22.80
2023-05-24T14:33:24.674Z,22.60
2023-05-24T14:36:00.794Z,22.20
2023-05-24T14:38:36.803Z,22.30
2023-05-24T14:41:12.831Z,22.20
2023-05-24T14:43:48.762Z,21.90
2023-05-24T14:46:24.808Z,21.90
2023-05-24T14:49:02.418Z,22.30
2023-05-24T14:51:38.376Z,22.40
2023-05-24T14:54:14.308Z,22.40
2023-05-24T14:56:50.235Z,22.30
2023-05-24T14:59:26.125Z,22.20
2023-05-24T15:02:02.113Z,22.40
2023-05-24T15:04:38.606Z,22.60
2023-05-24T15:07:14.530Z,22.60
2023-05-24T15:09:50.481Z,22.40
2023-05-24T15:12:26.375Z,22.40
2023-05-24T15:15:02.642Z,22.50
2023-05-24T15:17:38.571Z,22.50
2023-05-24T15:20:14.567Z,22.70
2023-05-24T15:22:50.544Z,22.50
2023-05-24T15:25:26.465Z,22.80
2023-05-24T15:28:03.096Z,23.00
2023-05-24T15:30:39.043Z,22.80
2023-05-24T15:33:16.893Z,22.10
2023-05-24T15:35:52.877Z,22.10
2023-05-24T15:38:28.803Z,22.10
2023-05-24T15:41:05.180Z,22.10
2023-05-24T15:43:41.182Z,22.00
2023-05-24T15:46:17.150Z,22.10
2023-05-24T15:48:53.074Z,22.30
2023-05-24T15:54:08.147Z,22.30
2023-05-24T15:56:44.086Z,21.80
2023-05-24T15:59:21.563Z,21.40
2023-05-24T16:01:57.711Z,20.90
2023-05-24T16:04:33.743Z,20.30
2023-05-24T16:07:09.721Z,19.80
2023-05-24T16:09:50.693Z,20.10
2023-05-24T16:12:26.737Z,20.10
2023-05-24T16:15:02.857Z,20.00
2023-05-24T16:17:38.767Z,20.20
2023-05-24T16:20:14.696Z,20.60
2023-05-24T16:22:50.804Z,20.50
2023-05-24T16:25:26.708Z,20.40
2023-05-24T16:28:03.648Z,20.20
2023-05-24T16:30:39.690Z,20.20
2023-05-24T16:33:15.665Z,20.10
2023-05-24T16:35:55.676Z,19.80
2023-05-24T16:38:31.867Z,19.70
2023-05-24T16:41:07.798Z,19.80
2023-05-24T16:43:43.686Z,20.00
2023-05-24T16:46:19.782Z,20.30
2023-05-24T16:48:55.958Z,20.30
2023-05-24T16:51:31.850Z,20.50
2023-05-24T16:54:08.868Z,20.70
2023-05-24T16:56:46.143Z,21.10
2023-05-24T16:59:23.353Z,21.30
2023-05-24T17:01:59.434Z,21.70
2023-05-24T17:04:35.409Z,22.00
2023-05-24T17:07:11.291Z,22.10
2023-05-24T17:09:50.055Z,22.40
2023-05-24T17:12:26.052Z,22.60
2023-05-24T17:15:02.007Z,22.80
2023-05-24T17:17:38.164Z,23.00
2023-05-24T17:20:14.578Z,23.10
2023-05-24T17:22:50.557Z,23.10
2023-05-24T17:25:26.457Z,23.10
2023-05-24T17:28:03.393Z,23.60
2023-05-24T17:30:39.295Z,23.40
2023-05-24T17:33:15.996Z,23.50
2023-05-24T17:35:52.569Z,23.40
2023-05-24T17:38:28.925Z,23.40
2023-05-24T17:41:07.805Z,23.60
2023-05-24T17:43:44.249Z,23.60
2023-05-24T17:46:20.210Z,23.50
2023-05-24T17:48:56.893Z,23.60
2023-05-24T17:51:34.981Z,23.60
2023-05-24T17:54:10.855Z,23.40
2023-05-24T17:56:46.750Z,23.40
2023-05-24T17:59:22.745Z,23.60
2023-05-24T18:01:58.623Z,23.40
2023-05-24T18:04:34.514Z,23.10
2023-05-24T18:07:10.633Z,22.80
2023-05-24T18:09:46.541Z,22.70
2023-05-24T18:12:22.426Z,22.60
2023-05-24T18:14:58.364Z,22.50
2023-05-24T18:17:34.967Z,22.60
2023-05-24T18:20:12.662Z,22.60
2023-05-24T18:22:48.572Z,22.70
2023-05-24T18:25:24.628Z,22.60
2023-05-24T18:28:01.191Z,22.40
2023-05-24T18:30:37.289Z,22.10
2023-05-24T18:33:13.667Z,21.70
2023-05-24T18:35:49.614Z,21.90
2023-05-24T18:38:25.591Z,22.00
2023-05-24T18:41:06.282Z,22.00
2023-05-24T18:43:42.981Z,22.00
2023-05-24T18:46:19.188Z,22.10
2023-05-24T18:48:56.680Z,22.10
2023-05-24T18:51:32.596Z,22.10
2023-05-24T18:54:08.995Z,22.10
2023-05-24T18:56:45.564Z,22.00
2023-05-24T18:59:28.885Z,21.80
2023-05-24T19:02:06.098Z,21.70
2023-05-24T19:04:42.195Z,21.60
2023-05-24T19:07:18.146Z,21.60
2023-05-24T19:09:54.021Z,21.50
2023-05-24T19:12:30.277Z,21.60
2023-05-24T19:15:07.467Z,21.70
2023-05-24T19:17:43.387Z,21.70
2023-05-24T19:20:19.724Z,21.70
2023-05-24T19:22:56.215Z,21.60
2023-05-24T19:25:32.139Z,21.70
2023-05-24T19:28:08.028Z,21.60
2023-05-24T19:30:44.077Z,21.60
2023-05-24T19:33:20.130Z,21.70
2023-05-24T19:35:56.073Z,21.70
2023-05-24T19:38:31.960Z,21.80
2023-05-24T19:41:07.875Z,21.70
2023-05-24T19:43:43.799Z,21.80
2023-05-24T19:46:19.773Z,21.80
2023-05-24T19:48:55.992Z,21.80
2023-05-24T19:51:31.932Z,21.90
2023-05-24T19:54:11.056Z,22.00
2023-05-24T19:56:50.508Z,22.10
2023-05-24T19:59:26.905Z,22.20
2023-05-24T20:02:02.988Z,22.10
2023-05-24T20:04:43.793Z,22.30
2023-05-24T20:07:19.686Z,22.50
2023-05-24T20:09:55.690Z,22.70
2023-05-24T20:12:33.787Z,22.80
2023-05-24T20:15:11.319Z,22.80
2023-05-24T20:17:48.313Z,22.90
2023-05-24T20:20:24.467Z,23.10
2023-05-24T20:23:00.535Z,23.30
2023-05-24T20:25:36.459Z,23.40
2023-05-24T20:28:25.584Z,23.60
2023-05-24T20:31:06.695Z,23.80
2023-05-24T20:33:42.744Z,23.90
2023-05-24T20:36:18.839Z,24.10
2023-05-24T20:38:54.717Z,24.20
2023-05-24T20:41:31.117Z,24.40
2023-05-24T20:44:07.038Z,24.60
2023-05-24T20:46:42.953Z,24.80
2023-05-24T20:49:19.003Z,25.00
2023-05-24T20:51:54.881Z,25.40
2023-05-24T20:54:30.952Z,25.80
2023-05-24T20:57:07.032Z,26.10
2023-05-24T20:59:42.962Z,26.30
2023-05-24T21:02:18.922Z,26.20
2023-05-24T21:04:56.109Z,26.50
2023-05-24T21:07:32.632Z,26.90
2023-05-24T21:10:09.393Z,27.50
2023-05-24T21:12:46.364Z,27.20
2023-05-24T21:15:22.355Z,27.30
2023-05-24T21:17:58.309Z,27.40
2023-05-24T21:20:34.345Z,27.40
2023-05-24T21:23:11.121Z,27.50
2023-05-24T21:25:47.031Z,27.90
2023-05-24T21:28:22.927Z,27.90
2023-05-24T21:30:58.905Z,27.90
2023-05-24T21:33:36.180Z,28.20
2023-05-24T21:36:12.524Z,28.40
2023-05-24T21:38:48.409Z,28.20
2023-05-24T21:41:24.708Z,28.40
2023-05-24T21:44:01.033Z,28.60
2023-05-24T21:46:37.006Z,28.80
2023-05-24T21:49:12.906Z,28.50
2023-05-24T21:51:48.946Z,28.40
2023-05-24T21:54:24.887Z,28.50
2023-05-24T21:57:01.827Z,28.90
2023-05-24T21:59:37.733Z,28.80
2023-05-24T22:02:14.406Z,28.80
2023-05-24T22:04:50.437Z,28.90
2023-05-24T22:07:26.354Z,29.00
2023-05-24T22:10:02.272Z,29.10
2023-05-24T22:12:38.357Z,29.30
2023-05-24T22:15:14.630Z,29.30
2023-05-24T22:17:50.598Z,29.40
2023-05-24T22:20:27.502Z,29.40
2023-05-24T22:23:03.620Z,29.60
2023-05-24T22:25:39.846Z,29.70
2023-05-24T22:28:15.790Z,29.70
2023-05-24T22:30:52.354Z,29.80
2023-05-24T22:33:28.271Z,29.60
2023-05-24T22:36:05.210Z,29.60
2023-05-24T22:38:41.989Z,29.40
2023-05-24T22:41:18.022Z,29.30
2023-05-24T22:43:55.101Z,29.40
2023-05-24T22:46:31.317Z,29.20
2023-05-24T22:49:07.255Z,29.20
2023-05-24T22:51:44.224Z,29.10
2023-05-24T22:54:20.288Z,29.20
2023-05-24T22:56:56.731Z,29.20
2023-05-24T22:59:32.881Z,29.10
2023-05-24T23:02:08.842Z,29.30
2023-05-24T23:04:48.321Z,29.20
2023-05-24T23:07:25.155Z,29.40
2023-05-24T23:10:01.279Z,29.60
2023-05-24T23:12:37.274Z,29.60
2023-05-24T23:15:16.644Z,29.70
2023-05-24T23:17:52.792Z,29.70
2023-05-24T23:20:29.414Z,29.90
2023-05-24T23:23:07.760Z,30.00
2023-05-24T23:25:43.930Z,30.10
2023-05-24T23:28:20.041Z,30.20
2023-05-24T23:30:55.989Z,30.50
2023-05-24T23:33:31.979Z,30.50
2023-05-24T23:36:09.844Z,30.50
2023-05-24T23:38:45.892Z,30.60
2023-05-24T23:41:21.937Z,30.50
2023-05-24T23:43:57.805Z,30.90
2023-05-24T23:46:33.808Z,30.40
2023-05-24T23:49:09.745Z,30.60
2023-05-24T23:51:45.714Z,30.60
2023-05-24T23:54:21.612Z,30.50
2023-05-24T23:56:57.510Z,30.60
2023-05-24T23:59:34.572Z,30.50
